createdAt,value
2022-11-23T00:00:34.239Z,0.00
2022-11-23T00:01:34.279Z,0.00
2022-11-23T00:02:34.394Z,0.00
2022-11-23T00:03:34.205Z,0.00
2022-11-23T00:04:34.224Z,0.00
2022-11-23T00:05:34.240Z,0.00
2022-11-23T00:06:34.206Z,0.00
2022-11-23T00:07:34.258Z,0.00
2022-11-23T00:08:34.178Z,0.00
2022-11-23T00:09:34.345Z,0.00
2022-11-23T00:10:34.182Z,0.00
2022-11-23T00:11:34.167Z,0.00
2022-11-23T00:12:34.167Z,0.00
2022-11-23T00:13:34.775Z,0.00
2022-11-23T00:14:34.164Z,0.00
2022-11-23T00:15:34.159Z,0.00
2022-11-23T00:16:34.130Z,0.00
2022-11-23T00:17:34.129Z,0.00
2022-11-23T00:18:34.118Z,0.00
2022-11-23T00:19:34.307Z,0.00
2022-11-23T00:20:34.104Z,0.00
2022-11-23T00:21:34.768Z,0.00
2022-11-23T00:22:34.075Z,0.00
2022-11-23T00:23:34.116Z,0.00
2022-11-23T00:24:34.165Z,0.00
2022-11-23T00:25:34.050Z,0.00
2022-11-23T00:26:34.083Z,0.00
2022-11-23T00:27:34.148Z,0.00
2022-11-23T00:28:34.016Z,0.00
2022-11-23T00:29:34.216Z,0.00
2022-11-23T00:30:34.681Z,0.00
2022-11-23T00:31:34.011Z,0.00
2022-11-23T00:32:34.045Z,0.00
2022-11-23T00:33:34.011Z,0.00
2022-11-23T00:34:33.996Z,0.00
2022-11-23T00:36:05.906Z,0.00
2022-11-23T00:36:34.004Z,0.00
2022-11-23T00:37:33.959Z,0.00
2022-11-23T00:38:34.030Z,0.00
2022-11-23T00:39:34.123Z,0.00
2022-11-23T00:40:33.956Z,0.00
2022-11-23T00:41:33.951Z,0.00
2022-11-23T00:42:38.089Z,0.00
2022-11-23T00:43:34.910Z,0.00
2022-11-23T00:44:33.934Z,0.00
2022-11-23T00:45:33.902Z,0.00
2022-11-23T00:46:33.893Z,0.00
2022-11-23T00:47:33.878Z,0.00
2022-11-23T00:48:33.909Z,0.00
2022-11-23T00:49:34.033Z,0.00
2022-11-23T00:50:33.906Z,0.00
2022-11-23T00:51:33.863Z,0.00
2022-11-23T00:52:35.809Z,0.00
2022-11-23T00:53:33.844Z,0.00
2022-11-23T00:54:33.841Z,0.00
2022-11-23T00:55:33.836Z,0.00
2022-11-23T00:56:33.900Z,0.00
2022-11-23T00:57:33.814Z,0.00
2022-11-23T00:58:33.818Z,0.00
2022-11-23T00:59:34.136Z,0.00
2022-11-23T01:00:33.786Z,0.00
2022-11-23T01:01:34.045Z,0.00
2022-11-23T01:02:33.777Z,0.00
2022-11-23T01:03:33.765Z,0.00
2022-11-23T01:04:33.763Z,0.00
2022-11-23T01:05:33.760Z,0.00
2022-11-23T01:06:33.753Z,0.00
2022-11-23T01:07:33.814Z,0.00
2022-11-23T01:08:33.760Z,0.00
2022-11-23T01:09:33.949Z,0.00
2022-11-23T01:10:33.699Z,0.00
2022-11-23T01:11:33.699Z,0.00
2022-11-23T01:12:33.695Z,0.00
2022-11-23T01:13:33.707Z,0.00
2022-11-23T01:14:33.702Z,0.00
2022-11-23T01:15:33.680Z,0.00
2022-11-23T01:16:33.702Z,0.00
2022-11-23T01:17:33.660Z,0.00
2022-11-23T01:18:33.677Z,0.00
2022-11-23T01:19:33.974Z,0.00
2022-11-23T01:20:33.646Z,0.00
2022-11-23T01:21:33.643Z,0.00
2022-11-23T01:22:33.640Z,0.00
2022-11-23T01:23:33.640Z,0.00
2022-11-23T01:24:33.650Z,0.00
2022-11-23T01:25:33.608Z,0.00
2022-11-23T01:26:33.676Z,0.00
2022-11-23T01:27:33.605Z,0.00
2022-11-23T01:28:33.580Z,0.00
2022-11-23T01:29:33.813Z,0.00
2022-11-23T01:30:33.581Z,0.00
2022-11-23T01:31:33.570Z,0.00
2022-11-23T01:32:33.608Z,0.00
2022-11-23T01:33:33.542Z,0.00
2022-11-23T01:34:33.551Z,0.00
2022-11-23T01:35:33.557Z,0.00
2022-11-23T01:36:33.551Z,0.00
2022-11-23T01:37:33.526Z,0.00
2022-11-23T01:38:33.499Z,0.00
2022-11-23T01:39:33.861Z,0.00
2022-11-23T01:40:33.492Z,0.00
2022-11-23T01:41:33.526Z,0.00
2022-11-23T01:42:33.466Z,0.00
2022-11-23T01:43:33.466Z,0.00
2022-11-23T01:44:33.458Z,0.00
2022-11-23T01:45:33.476Z,0.00
2022-11-23T01:46:33.456Z,0.00
2022-11-23T01:47:33.439Z,0.00
2022-11-23T01:48:33.427Z,0.00
2022-11-23T01:49:33.676Z,0.00
2022-11-23T01:50:33.420Z,0.00
2022-11-23T01:51:33.427Z,0.00
2022-11-23T01:52:33.454Z,0.00
2022-11-23T01:53:33.388Z,0.00
2022-11-23T01:54:33.840Z,0.00
2022-11-23T01:55:33.364Z,0.00
2022-11-23T01:56:33.361Z,0.00
2022-11-23T01:57:33.386Z,0.00
2022-11-23T01:58:33.349Z,0.00
2022-11-23T01:59:33.833Z,0.00
2022-11-23T02:00:33.339Z,0.00
2022-11-23T02:01:33.406Z,0.00
2022-11-23T02:02:33.356Z,0.00
2022-11-23T02:03:33.313Z,0.00
2022-11-23T02:04:33.292Z,0.00
2022-11-23T02:05:33.284Z,0.00
2022-11-23T02:06:33.290Z,0.00
2022-11-23T02:07:33.286Z,0.00
2022-11-23T02:08:33.300Z,0.00
2022-11-23T02:09:33.560Z,0.00
2022-11-23T02:10:33.272Z,0.00
2022-11-23T02:11:33.231Z,0.00
2022-11-23T02:12:33.228Z,0.00
2022-11-23T02:13:33.234Z,0.00
2022-11-23T02:14:33.209Z,0.00
2022-11-23T02:15:33.219Z,0.00
2022-11-23T02:16:33.222Z,0.00
2022-11-23T02:17:33.200Z,0.00
2022-11-23T02:18:33.186Z,0.00
2022-11-23T02:19:33.552Z,0.00
2022-11-23T02:20:33.170Z,0.00
2022-11-23T02:21:33.188Z,0.00
2022-11-23T02:22:33.164Z,0.00
2022-11-23T02:23:33.176Z,0.00
2022-11-23T02:24:33.140Z,0.00
2022-11-23T02:25:33.131Z,0.00
2022-11-23T02:26:33.147Z,0.00
2022-11-23T02:27:33.133Z,0.00
2022-11-23T02:28:33.105Z,0.00
2022-11-23T02:30:05.056Z,0.00
2022-11-23T02:30:33.135Z,0.00
2022-11-23T02:31:33.113Z,0.00
2022-11-23T02:32:33.117Z,0.00
2022-11-23T02:33:33.101Z,0.00
2022-11-23T02:34:33.079Z,0.00
2022-11-23T02:35:33.051Z,0.00
2022-11-23T02:36:33.037Z,0.00
2022-11-23T02:37:33.060Z,0.00
2022-11-23T02:39:04.979Z,0.00
2022-11-23T02:39:33.189Z,0.00
2022-11-23T02:40:33.020Z,0.00
2022-11-23T02:41:33.030Z,0.00
2022-11-23T02:43:06.025Z,0.00
2022-11-23T02:43:33.528Z,0.00
2022-11-23T02:46:30.602Z,0.00
2022-11-23T02:47:37.681Z,0.00
2022-11-23T02:48:30.611Z,0.00
2022-11-23T02:49:30.956Z,0.00
2022-11-23T02:50:31.791Z,0.00
2022-11-23T02:51:31.700Z,0.00
2022-11-23T02:52:31.763Z,0.00
2022-11-23T02:53:31.783Z,0.00
2022-11-23T02:54:31.695Z,0.00
2022-11-23T02:55:31.698Z,0.00
2022-11-23T02:56:31.668Z,0.00
2022-11-23T02:57:31.677Z,0.00
2022-11-23T02:58:31.651Z,0.00
2022-11-23T02:59:31.894Z,0.00
2022-11-23T03:00:31.679Z,0.00
2022-11-23T03:01:31.630Z,0.00
2022-11-23T03:02:31.644Z,0.00
2022-11-23T03:03:31.615Z,0.00
2022-11-23T03:04:31.646Z,0.00
2022-11-23T03:05:31.645Z,0.00
2022-11-23T03:06:31.612Z,0.00
2022-11-23T03:07:31.682Z,0.00
2022-11-23T03:08:31.608Z,0.00
2022-11-23T03:09:31.849Z,0.00
2022-11-23T03:10:31.572Z,0.00
2022-11-23T03:11:31.559Z,0.00
2022-11-23T03:12:31.566Z,0.00
2022-11-23T03:13:31.544Z,0.00
2022-11-23T03:14:31.574Z,0.00
2022-11-23T03:15:31.548Z,0.00
2022-11-23T03:16:31.563Z,0.00
2022-11-23T03:17:31.556Z,0.00
2022-11-23T03:18:31.507Z,0.00
2022-11-23T03:19:31.754Z,0.00
2022-11-23T03:20:31.530Z,0.00
2022-11-23T03:21:31.492Z,0.00
2022-11-23T03:22:31.501Z,0.00
2022-11-23T03:23:31.475Z,0.00
2022-11-23T03:24:31.509Z,0.00
2022-11-23T03:25:31.477Z,0.00
2022-11-23T03:26:31.470Z,0.00
2022-11-23T03:27:31.471Z,0.00
2022-11-23T03:28:31.445Z,0.00
2022-11-23T03:29:31.705Z,0.00
2022-11-23T03:30:31.416Z,0.00
2022-11-23T03:31:31.421Z,0.00
2022-11-23T03:32:31.458Z,0.00
2022-11-23T03:33:31.398Z,0.00
2022-11-23T03:34:31.387Z,0.00
2022-11-23T03:35:31.369Z,0.00
2022-11-23T03:36:31.394Z,0.00
2022-11-23T03:37:31.379Z,0.00
2022-11-23T03:39:03.286Z,0.00
2022-11-23T03:39:31.561Z,0.00
2022-11-23T03:40:31.360Z,0.00
2022-11-23T03:41:31.321Z,0.00
2022-11-23T03:42:31.353Z,0.00
2022-11-23T03:43:31.363Z,0.00
2022-11-23T03:44:31.378Z,0.00
2022-11-23T03:45:31.344Z,0.00
2022-11-23T03:46:31.340Z,0.00
2022-11-23T03:47:31.279Z,0.00
2022-11-23T04:03:06.243Z,0.00
2022-11-23T04:04:06.198Z,0.00
2022-11-23T04:05:06.222Z,0.00
2022-11-23T04:06:07.338Z,0.00
2022-11-23T04:07:07.366Z,0.00
2022-11-23T04:08:07.926Z,0.00
2022-11-23T04:09:07.310Z,0.00
2022-11-23T04:10:07.292Z,0.00
2022-11-23T04:11:07.305Z,0.00
2022-11-23T04:12:07.305Z,0.00
2022-11-23T04:13:07.284Z,0.00
2022-11-23T04:14:07.262Z,0.00
2022-11-23T04:15:07.252Z,0.00
2022-11-23T04:16:07.304Z,0.00
2022-11-23T04:17:07.255Z,0.00
2022-11-23T04:18:07.247Z,0.00
2022-11-23T04:19:07.258Z,0.00
2022-11-23T04:20:07.251Z,0.00
2022-11-23T04:21:07.217Z,0.00
2022-11-23T04:22:07.202Z,0.00
2022-11-23T04:23:12.869Z,0.00
2022-11-23T04:24:09.186Z,0.00
2022-11-23T04:25:07.213Z,0.00
2022-11-23T04:26:07.171Z,0.00
2022-11-23T04:27:07.157Z,0.00
2022-11-23T04:28:07.165Z,0.00
2022-11-23T04:29:07.224Z,0.00
2022-11-23T04:30:07.210Z,0.00
2022-11-23T04:31:07.152Z,0.00
2022-11-23T04:32:07.193Z,0.00
2022-11-23T04:33:07.121Z,0.00
2022-11-23T04:34:07.128Z,0.00
2022-11-23T04:35:07.114Z,0.00
2022-11-23T04:36:07.121Z,0.00
2022-11-23T04:37:12.863Z,0.00
2022-11-23T04:38:09.104Z,0.00
2022-11-23T04:39:07.096Z,0.00
2022-11-23T04:40:07.062Z,0.00
2022-11-23T04:41:07.115Z,0.00
2022-11-23T04:42:07.087Z,0.00
2022-11-23T04:43:07.088Z,0.00
2022-11-23T04:44:07.086Z,0.00
2022-11-23T04:45:07.049Z,0.00
2022-11-23T04:46:07.067Z,0.00
2022-11-23T04:47:07.032Z,0.00
2022-11-23T04:48:07.061Z,0.00
2022-11-23T04:49:07.002Z,0.00
2022-11-23T04:50:07.005Z,0.00
2022-11-23T04:51:07.019Z,0.00
2022-11-23T04:52:07.006Z,0.00
2022-11-23T04:53:06.998Z,0.00
2022-11-23T04:54:06.959Z,0.00
2022-11-23T04:55:06.954Z,0.00
2022-11-23T04:56:06.963Z,0.00
2022-11-23T04:57:06.955Z,0.00
2022-11-23T04:58:06.956Z,0.00
2022-11-23T04:59:06.920Z,0.00
2022-11-23T05:00:06.926Z,0.00
2022-11-23T05:01:07.018Z,0.00
2022-11-23T05:02:06.962Z,0.00
2022-11-23T05:03:06.885Z,0.00
2022-11-23T05:04:06.883Z,0.00
2022-11-23T05:05:06.880Z,0.00
2022-11-23T05:06:06.886Z,0.00
2022-11-23T05:07:06.934Z,0.00
2022-11-23T05:08:06.871Z,0.00
2022-11-23T05:09:06.846Z,0.00
2022-11-23T05:10:06.868Z,0.00
2022-11-23T05:11:06.848Z,0.00
2022-11-23T05:12:06.836Z,0.00
2022-11-23T05:13:07.812Z,0.00
2022-11-23T05:14:06.806Z,0.00
2022-11-23T05:15:06.802Z,0.00
2022-11-23T05:16:06.787Z,0.00
2022-11-23T05:17:06.811Z,0.00
2022-11-23T05:18:06.831Z,0.00
2022-11-23T05:19:06.825Z,0.00
2022-11-23T05:20:06.769Z,0.00
2022-11-23T05:21:06.749Z,0.00
2022-11-23T05:22:06.745Z,0.00
2022-11-23T05:23:06.764Z,0.00
2022-11-23T05:24:06.750Z,0.00
2022-11-23T05:25:06.769Z,0.00
2022-11-23T05:26:06.779Z,0.00
2022-11-23T05:27:06.697Z,0.00
2022-11-23T05:28:30.058Z,0.00
2022-11-23T05:29:08.697Z,0.00
2022-11-23T05:30:06.704Z,0.00
2022-11-23T05:31:06.694Z,0.00
2022-11-23T05:32:06.665Z,0.00
2022-11-23T05:33:07.653Z,0.00
2022-11-23T05:34:06.665Z,0.00
2022-11-23T05:35:06.685Z,0.00
2022-11-23T05:36:06.621Z,0.00
2022-11-23T05:37:06.778Z,0.00
2022-11-23T05:38:06.661Z,0.00
2022-11-23T05:39:06.620Z,0.00
2022-11-23T05:40:06.649Z,0.00
2022-11-23T05:41:06.669Z,0.00
2022-11-23T05:42:06.595Z,0.00
2022-11-23T05:43:06.586Z,0.00
2022-11-23T05:44:06.569Z,0.00
2022-11-23T05:45:11.276Z,0.00
2022-11-23T05:46:08.603Z,0.00
2022-11-23T05:47:06.615Z,0.00
2022-11-23T05:48:07.454Z,0.00
2022-11-23T05:49:06.532Z,0.00
2022-11-23T05:50:06.538Z,0.00
2022-11-23T05:51:06.542Z,0.00
2022-11-23T05:52:07.472Z,0.00
2022-11-23T05:53:06.642Z,0.00
2022-11-23T05:54:06.522Z,0.00
2022-11-23T05:55:06.508Z,0.00
2022-11-23T05:56:06.535Z,0.00
2022-11-23T05:57:06.468Z,0.00
2022-11-23T05:58:06.522Z,0.00
2022-11-23T05:59:06.470Z,0.00
2022-11-23T06:00:53.061Z,0.00
2022-11-23T06:01:54.184Z,0.00
2022-11-23T06:02:54.208Z,0.00
2022-11-23T06:03:54.215Z,0.00
2022-11-23T06:04:54.170Z,0.00
2022-11-23T06:05:54.162Z,0.00
2022-11-23T06:06:54.151Z,0.00
2022-11-23T06:07:54.230Z,0.00
2022-11-23T06:08:54.111Z,0.00
2022-11-23T06:09:54.145Z,0.00
2022-11-23T06:10:54.128Z,0.00
2022-11-23T06:11:54.097Z,0.00
2022-11-23T06:12:54.124Z,0.00
2022-11-23T06:13:54.194Z,0.00
2022-11-23T06:14:54.079Z,0.00
2022-11-23T06:15:54.112Z,0.00
2022-11-23T06:16:54.073Z,4.00
2022-11-23T06:17:54.051Z,4.00
2022-11-23T06:18:54.167Z,4.00
2022-11-23T06:19:54.046Z,0.00
2022-11-23T06:20:54.035Z,4.00
2022-11-23T06:21:54.041Z,4.00
2022-11-23T06:22:54.104Z,4.00
2022-11-23T06:23:54.028Z,4.00
2022-11-23T06:24:54.004Z,4.00
2022-11-23T06:25:54.002Z,4.00
2022-11-23T06:26:53.975Z,8.00
2022-11-23T06:27:53.980Z,8.00
2022-11-23T06:28:54.015Z,8.00
2022-11-23T06:29:53.999Z,8.00
2022-11-23T06:30:54.055Z,8.00
2022-11-23T06:31:53.961Z,12.00
2022-11-23T06:32:53.934Z,12.00
2022-11-23T06:33:53.940Z,16.00
2022-11-23T06:34:59.383Z,20.00
2022-11-23T06:35:55.984Z,20.00
2022-11-23T06:36:53.912Z,28.00
2022-11-23T06:37:53.905Z,32.00
2022-11-23T06:38:53.904Z,36.00
2022-11-23T06:39:53.887Z,40.00
2022-11-23T06:40:53.885Z,40.00
2022-11-23T06:41:57.065Z,44.00
2022-11-23T06:42:55.901Z,44.00
2022-11-23T06:43:53.876Z,48.00
2022-11-23T06:44:53.884Z,48.00
2022-11-23T06:45:53.848Z,52.00
2022-11-23T06:46:53.871Z,56.00
2022-11-23T06:47:53.861Z,56.00
2022-11-23T06:48:53.880Z,60.00
2022-11-23T06:49:53.834Z,68.00
2022-11-23T06:50:53.811Z,76.00
2022-11-23T06:51:53.807Z,84.00
2022-11-23T06:52:53.800Z,88.00
2022-11-23T06:53:53.795Z,92.00
2022-11-23T06:54:53.767Z,96.00
2022-11-23T06:55:53.785Z,104.00
2022-11-23T06:56:53.758Z,120.00
2022-11-23T06:57:53.765Z,140.00
2022-11-23T06:58:53.797Z,168.00
2022-11-23T06:59:53.783Z,192.00
2022-11-23T07:00:53.952Z,236.00
2022-11-23T07:01:53.726Z,300.00
2022-11-23T07:02:53.799Z,364.00
2022-11-23T07:03:53.782Z,436.00
2022-11-23T07:04:53.715Z,524.00
2022-11-23T07:05:53.687Z,584.00
2022-11-23T07:06:53.671Z,644.00
2022-11-23T07:07:53.763Z,696.00
2022-11-23T07:08:53.700Z,712.00
2022-11-23T07:09:56.627Z,712.00
2022-11-23T07:10:54.683Z,792.00
2022-11-23T07:11:53.630Z,904.00
2022-11-23T07:12:53.648Z,972.00
2022-11-23T07:13:53.652Z,1036.00
2022-11-23T07:14:53.712Z,1204.00
2022-11-23T07:15:53.618Z,1380.00
2022-11-23T07:16:53.608Z,1492.00
2022-11-23T07:17:53.611Z,1604.00
2022-11-23T07:18:53.616Z,1728.00
2022-11-23T07:19:53.579Z,1928.00
2022-11-23T07:20:53.582Z,2096.00
2022-11-23T07:21:53.584Z,2204.00
2022-11-23T07:22:53.559Z,2156.00
2022-11-23T07:23:53.547Z,2164.00
2022-11-23T07:24:53.546Z,1992.00
2022-11-23T07:25:53.527Z,1576.00
2022-11-23T07:26:53.538Z,1276.00
2022-11-23T07:27:53.519Z,1060.00
2022-11-23T07:28:53.547Z,972.00
2022-11-23T07:29:53.536Z,928.00
2022-11-23T07:30:53.519Z,896.00
2022-11-23T07:31:53.473Z,888.00
2022-11-23T07:32:53.560Z,888.00
2022-11-23T07:33:53.461Z,828.00
2022-11-23T07:34:53.479Z,860.00
2022-11-23T07:35:53.447Z,996.00
2022-11-23T07:36:55.854Z,1200.00
2022-11-23T07:37:54.483Z,1488.00
2022-11-23T07:38:53.455Z,1652.00
2022-11-23T07:39:58.083Z,1740.00
2022-11-23T07:40:54.412Z,1768.00
2022-11-23T07:42:05.212Z,1984.00
2022-11-23T07:42:55.391Z,2200.00
2022-11-23T07:43:53.443Z,1904.00
2022-11-23T07:44:53.388Z,1716.00
2022-11-23T07:45:53.377Z,1684.00
2022-11-23T07:46:53.377Z,1820.00
2022-11-23T07:47:53.369Z,1712.00
2022-11-23T07:48:53.383Z,1608.00
2022-11-23T07:49:53.354Z,1664.00
2022-11-23T07:50:53.352Z,1836.00
2022-11-23T07:51:53.331Z,2084.00
2022-11-23T07:52:53.325Z,2216.00
2022-11-23T07:53:54.305Z,2732.00
2022-11-23T07:54:53.373Z,3004.00
2022-11-23T07:55:53.310Z,3220.00
2022-11-23T07:56:53.288Z,3604.00
2022-11-23T07:57:53.291Z,4380.00
2022-11-23T07:58:53.312Z,5324.00
2022-11-23T07:59:53.287Z,6416.00
2022-11-23T08:00:53.283Z,6708.00
2022-11-23T08:01:58.372Z,21376.00
2022-11-23T08:03:26.268Z,9616.00
2022-11-23T08:03:55.256Z,12068.00
2022-11-23T08:04:53.248Z,45664.00
2022-11-23T08:05:53.232Z,46688.00
2022-11-23T08:06:53.208Z,47552.00
2022-11-23T08:07:53.205Z,48640.00
2022-11-23T08:08:53.211Z,48928.00
2022-11-23T08:09:53.223Z,47936.00
2022-11-23T08:10:54.321Z,47872.00
2022-11-23T08:11:54.197Z,47648.00
2022-11-23T08:12:53.192Z,48704.00
2022-11-23T08:13:53.177Z,50048.00
2022-11-23T08:14:53.159Z,51200.00
2022-11-23T08:15:55.795Z,54656.00
2022-11-23T08:16:54.130Z,45312.00
2022-11-23T08:17:53.129Z,28768.00
2022-11-23T08:18:53.134Z,22400.00
2022-11-23T08:19:53.115Z,21472.00
2022-11-23T08:20:53.105Z,21664.00
2022-11-23T08:21:53.097Z,21984.00
2022-11-23T08:22:53.113Z,21728.00
2022-11-23T08:23:53.164Z,21888.00
2022-11-23T08:24:53.105Z,22112.00
2022-11-23T08:25:53.078Z,22368.00
2022-11-23T08:26:53.086Z,22656.00
2022-11-23T08:27:53.084Z,21472.00
2022-11-23T08:29:25.113Z,18560.00
2022-11-23T08:29:53.811Z,15680.00
2022-11-23T08:30:53.063Z,16064.00
2022-11-23T08:31:53.025Z,23232.00
2022-11-23T08:32:53.059Z,21632.00
2022-11-23T08:33:53.055Z,12620.00
2022-11-23T08:34:53.001Z,7616.00
2022-11-23T08:35:53.018Z,7056.00
2022-11-23T08:36:52.970Z,7128.00
2022-11-23T08:37:52.984Z,8852.00
2022-11-23T08:38:52.959Z,7872.00
2022-11-23T08:39:52.939Z,10032.00
2022-11-23T08:40:52.969Z,8304.00
2022-11-23T08:41:52.934Z,6836.00
2022-11-23T08:42:53.947Z,6724.00
2022-11-23T08:43:52.938Z,7740.00
2022-11-23T08:44:53.001Z,8712.00
2022-11-23T08:45:52.939Z,9960.00
2022-11-23T08:46:52.897Z,12824.00
2022-11-23T08:47:52.929Z,34848.00
2022-11-23T08:48:52.913Z,37792.00
2022-11-23T08:49:52.901Z,38112.00
2022-11-23T08:50:52.936Z,36768.00
2022-11-23T08:51:52.874Z,38624.00
2022-11-23T08:52:52.863Z,30496.00
2022-11-23T08:53:52.878Z,24576.00
2022-11-23T08:54:52.865Z,29536.00
2022-11-23T08:55:52.837Z,12540.00
2022-11-23T08:56:52.825Z,6776.00
2022-11-23T08:57:52.854Z,6948.00
2022-11-23T08:58:52.818Z,7208.00
2022-11-23T08:59:52.820Z,6992.00
2022-11-23T09:00:52.792Z,6600.00
2022-11-23T09:01:52.841Z,6428.00
2022-11-23T09:02:52.770Z,6296.00
2022-11-23T09:03:52.780Z,6204.00
2022-11-23T09:04:52.754Z,6028.00
2022-11-23T09:05:52.779Z,5864.00
2022-11-23T09:06:52.839Z,5584.00
2022-11-23T09:07:52.828Z,5324.00
2022-11-23T09:08:52.770Z,5116.00
2022-11-23T09:09:52.753Z,4952.00
2022-11-23T09:10:52.813Z,4864.00
2022-11-23T09:11:52.696Z,4944.00
2022-11-23T09:12:52.696Z,4764.00
2022-11-23T09:13:52.700Z,4528.00
2022-11-23T09:14:52.727Z,4360.00
2022-11-23T09:15:52.698Z,4216.00
2022-11-23T09:16:52.671Z,4156.00
2022-11-23T09:17:52.678Z,4092.00
2022-11-23T09:18:52.658Z,4228.00
2022-11-23T09:19:52.660Z,6684.00
2022-11-23T09:20:52.658Z,4816.00
2022-11-23T09:21:52.625Z,5160.00
2022-11-23T09:22:52.625Z,5268.00
2022-11-23T09:23:52.606Z,5360.00
2022-11-23T09:24:52.654Z,5724.00
2022-11-23T09:25:52.602Z,6040.00
2022-11-23T09:26:52.643Z,6192.00
2022-11-23T09:27:52.610Z,6240.00
2022-11-23T09:28:52.582Z,5864.00
2022-11-23T09:29:52.593Z,5532.00
2022-11-23T09:30:52.598Z,5244.00
2022-11-23T09:31:52.560Z,4568.00
2022-11-23T09:32:52.553Z,4280.00
2022-11-23T09:33:52.546Z,4152.00
2022-11-23T09:34:52.527Z,3872.00
2022-11-23T09:35:52.534Z,3852.00
2022-11-23T09:36:52.543Z,3888.00
2022-11-23T09:37:52.538Z,3776.00
2022-11-23T09:38:56.635Z,3628.00
2022-11-23T09:39:53.511Z,3544.00
2022-11-23T09:40:57.626Z,3624.00
2022-11-23T09:41:54.467Z,3772.00
2022-11-23T09:42:52.547Z,3916.00
2022-11-23T09:43:52.602Z,4024.00
2022-11-23T09:44:52.500Z,4128.00
2022-11-23T09:45:52.453Z,4288.00
2022-11-23T09:46:52.459Z,4580.00
2022-11-23T09:47:52.465Z,4852.00
2022-11-23T09:48:52.420Z,4896.00
2022-11-23T09:49:52.403Z,4956.00
2022-11-23T09:50:52.396Z,4900.00
2022-11-23T09:51:52.421Z,5068.00
2022-11-23T09:52:52.385Z,4768.00
2022-11-23T09:53:52.405Z,4716.00
2022-11-23T09:54:52.450Z,4720.00
2022-11-23T09:55:52.356Z,4392.00
2022-11-23T09:56:54.865Z,4224.00
2022-11-23T09:57:53.370Z,4100.00
2022-11-23T09:58:52.359Z,4000.00
2022-11-23T09:59:52.343Z,3752.00
2022-11-23T10:00:52.327Z,3368.00
2022-11-23T10:01:52.431Z,3072.00
2022-11-23T10:02:52.358Z,3052.00
2022-11-23T10:03:52.296Z,2980.00
2022-11-23T10:04:52.353Z,2820.00
2022-11-23T10:05:52.282Z,2660.00
2022-11-23T10:06:52.281Z,2592.00
2022-11-23T10:07:52.287Z,2576.00
2022-11-23T10:08:52.261Z,2672.00
2022-11-23T10:09:52.303Z,2784.00
2022-11-23T10:10:52.262Z,2908.00
2022-11-23T10:11:52.250Z,2968.00
2022-11-23T10:12:52.233Z,2984.00
2022-11-23T10:13:52.230Z,3012.00
2022-11-23T10:14:53.230Z,3036.00
2022-11-23T10:15:52.219Z,3156.00
2022-11-23T10:16:52.841Z,3276.00
2022-11-23T10:17:52.249Z,3428.00
2022-11-23T10:18:52.202Z,3552.00
2022-11-23T10:19:52.189Z,3584.00
2022-11-23T10:20:52.205Z,3524.00
2022-11-23T10:21:52.173Z,3424.00
2022-11-23T10:22:52.194Z,3408.00
2022-11-23T10:23:52.159Z,3412.00
2022-11-23T10:24:52.205Z,3428.00
2022-11-23T10:25:52.172Z,3440.00
2022-11-23T10:26:52.182Z,3400.00
2022-11-23T10:27:52.225Z,3396.00
2022-11-23T10:28:52.125Z,3476.00
2022-11-23T10:29:52.120Z,3448.00
2022-11-23T10:30:52.177Z,3360.00
2022-11-23T10:31:56.822Z,3360.00
2022-11-23T10:32:54.102Z,3420.00
2022-11-23T10:33:52.087Z,3528.00
2022-11-23T10:34:52.153Z,3616.00
2022-11-23T10:35:52.072Z,3668.00
2022-11-23T10:36:52.060Z,3628.00
2022-11-23T10:37:53.811Z,3668.00
2022-11-23T10:38:53.136Z,3672.00
2022-11-23T10:39:52.054Z,3680.00
2022-11-23T10:40:52.060Z,3720.00
2022-11-23T10:41:52.047Z,3756.00
2022-11-23T10:42:52.025Z,3844.00
2022-11-23T10:43:52.000Z,3952.00
2022-11-23T10:44:53.028Z,4052.00
2022-11-23T10:45:54.792Z,4212.00
2022-11-23T10:46:54.001Z,4348.00
2022-11-23T10:47:51.975Z,4384.00
2022-11-23T10:48:51.977Z,4392.00
2022-11-23T10:49:51.979Z,4340.00
2022-11-23T10:50:51.947Z,4388.00
2022-11-23T10:51:51.963Z,4556.00
2022-11-23T10:52:51.967Z,4824.00
2022-11-23T10:53:51.970Z,5124.00
2022-11-23T10:54:51.949Z,5328.00
2022-11-23T10:55:51.911Z,5596.00
2022-11-23T10:56:51.937Z,5772.00
2022-11-23T10:57:51.919Z,6044.00
2022-11-23T10:58:51.892Z,6012.00
2022-11-23T10:59:51.894Z,6228.00
2022-11-23T11:00:51.859Z,6292.00
2022-11-23T11:01:51.955Z,7228.00
2022-11-23T11:02:51.881Z,8308.00
2022-11-23T11:03:51.848Z,8784.00
2022-11-23T11:04:57.305Z,9208.00
2022-11-23T11:06:08.604Z,10416.00
2022-11-23T11:06:53.853Z,9676.00
2022-11-23T11:07:51.885Z,11868.00
2022-11-23T11:08:51.811Z,10720.00
2022-11-23T11:09:51.896Z,9920.00
2022-11-23T11:10:51.798Z,9596.00
2022-11-23T11:11:51.790Z,9580.00
2022-11-23T11:12:51.801Z,9844.00
2022-11-23T11:13:51.765Z,10024.00
2022-11-23T11:14:51.791Z,11640.00
2022-11-23T11:15:51.757Z,11704.00
2022-11-23T11:16:51.739Z,11512.00
2022-11-23T11:17:51.730Z,11124.00
2022-11-23T11:18:51.749Z,8856.00
2022-11-23T11:19:51.721Z,10200.00
2022-11-23T11:20:52.231Z,9956.00
2022-11-23T11:21:52.290Z,9688.00
2022-11-23T11:22:52.354Z,9472.00
2022-11-23T11:23:51.701Z,9200.00
2022-11-23T11:24:51.742Z,9036.00
2022-11-23T11:25:51.663Z,8808.00
2022-11-23T11:26:51.670Z,8572.00
2022-11-23T11:27:51.665Z,8452.00
2022-11-23T11:28:51.743Z,8228.00
2022-11-23T11:29:51.669Z,8072.00
2022-11-23T11:30:51.625Z,7896.00
2022-11-23T11:31:51.609Z,7748.00
2022-11-23T11:32:51.608Z,7652.00
2022-11-23T11:33:51.642Z,7628.00
2022-11-23T11:34:51.653Z,7532.00
2022-11-23T11:35:51.659Z,7512.00
2022-11-23T11:36:51.594Z,7492.00
2022-11-23T11:37:51.620Z,7492.00
2022-11-23T11:39:14.943Z,7404.00
2022-11-23T11:39:53.574Z,7012.00
2022-11-23T11:40:51.544Z,7372.00
2022-11-23T11:41:51.572Z,7092.00
2022-11-23T11:42:51.542Z,7048.00
2022-11-23T11:43:53.158Z,7156.00
2022-11-23T11:44:51.771Z,7060.00
2022-11-23T11:46:21.517Z,7032.00
2022-11-23T11:46:53.507Z,6876.00
2022-11-23T11:47:51.600Z,6812.00
2022-11-23T11:48:51.497Z,6648.00
2022-11-23T11:49:51.486Z,6456.00
2022-11-23T11:50:51.474Z,6280.00
2022-11-23T11:51:51.499Z,6328.00
2022-11-23T11:52:51.538Z,6008.00
2022-11-23T11:53:51.439Z,5820.00
2022-11-23T11:54:51.437Z,5824.00
2022-11-23T11:55:51.453Z,5832.00
2022-11-23T11:56:51.446Z,5748.00
2022-11-23T11:57:51.643Z,5764.00
2022-11-23T11:58:51.426Z,5796.00
2022-11-23T11:59:51.431Z,5820.00
2022-11-23T12:00:51.400Z,5780.00
2022-11-23T12:01:51.426Z,5744.00
2022-11-23T12:02:52.363Z,5956.00
2022-11-23T12:03:51.428Z,5916.00
2022-11-23T12:04:51.373Z,5740.00
2022-11-23T12:05:51.359Z,5568.00
2022-11-23T12:06:51.352Z,5500.00
2022-11-23T12:07:51.479Z,5496.00
2022-11-23T12:08:51.428Z,5528.00
2022-11-23T12:09:51.393Z,3648.00
2022-11-23T12:10:51.319Z,5156.00
2022-11-23T12:11:51.360Z,5480.00
2022-11-23T12:12:51.312Z,5448.00
2022-11-23T12:13:51.326Z,5456.00
2022-11-23T12:14:51.488Z,5428.00
2022-11-23T12:15:51.275Z,5368.00
2022-11-23T12:17:10.208Z,5352.00
2022-11-23T12:17:53.285Z,5356.00
2022-11-23T12:18:51.508Z,5340.00
2022-11-23T12:19:51.312Z,5316.00
2022-11-23T12:20:51.255Z,5316.00
2022-11-23T12:21:54.486Z,5336.00
2022-11-23T12:22:52.341Z,5332.00
2022-11-23T12:23:51.250Z,5272.00
2022-11-23T12:24:51.195Z,5296.00
2022-11-23T12:25:51.212Z,5300.00
2022-11-23T12:26:51.216Z,5268.00
2022-11-23T12:27:51.237Z,5352.00
2022-11-23T12:28:51.210Z,5360.00
2022-11-23T12:29:51.209Z,5416.00
2022-11-23T12:30:51.887Z,5424.00
2022-11-23T12:31:51.171Z,5580.00
2022-11-23T12:32:51.154Z,5480.00
2022-11-23T12:34:52.306Z,5456.00
2022-11-23T12:35:51.123Z,5544.00
2022-11-23T12:36:51.144Z,5624.00
2022-11-23T12:37:51.140Z,5724.00
2022-11-23T12:38:51.127Z,5776.00
2022-11-23T12:39:51.126Z,5816.00
2022-11-23T12:40:51.131Z,5892.00
2022-11-23T12:41:51.185Z,5928.00
2022-11-23T12:42:51.975Z,5948.00
2022-11-23T12:43:51.832Z,3500.00
2022-11-23T12:44:51.872Z,3432.00
2022-11-23T12:45:51.072Z,3340.00
2022-11-23T12:46:51.096Z,5936.00
2022-11-23T12:47:51.069Z,4340.00
2022-11-23T12:48:51.024Z,5736.00
2022-11-23T12:49:51.132Z,6184.00
2022-11-23T12:50:51.034Z,6180.00
2022-11-23T12:51:51.109Z,3476.00
2022-11-23T12:52:51.020Z,5396.00
2022-11-23T12:53:51.097Z,5660.00
2022-11-23T12:54:50.984Z,3324.00
2022-11-23T12:55:50.996Z,3348.00
2022-11-23T12:56:50.986Z,4400.00
2022-11-23T12:57:50.992Z,6160.00
2022-11-23T12:58:51.064Z,5528.00